sensor_id;sensor_type;location;lat;lon;timestamp;temperature;humidity
48666;DHT22;34452;50.796;4.994;2023-08-01T00:00:44;17.40;99.90
48666;DHT22;34452;50.796;4.994;2023-08-01T00:03:10;17.30;99.90
48666;DHT22;34452;50.796;4.994;2023-08-01T00:05:36;17.30;99.90
48666;DHT22;34452;50.796;4.994;2023-08-01T00:08:03;17.20;99.90
48666;DHT22;34452;50.796;4.994;2023-08-01T00:10:28;17.20;99.90
48666;DHT22;34452;50.796;4.994;2023-08-01T00:12:54;17.20;99.90
48666;DHT22;34452;50.796;4.994;2023-08-01T00:15:20;17.30;99.90
48666;DHT22;34452;50.796;4.994;2023-08-01T00:17:45;17.20;99.90
48666;DHT22;34452;50.796;4.994;2023-08-01T00:20:11;17.20;99.90
48666;DHT22;34452;50.796;4.994;2023-08-01T00:22:37;17.20;99.90
48666;DHT22;34452;50.796;4.994;2023-08-01T00:25:03;17.20;99.90
48666;DHT22;34452;50.796;4.994;2023-08-01T00:27:28;17.20;99.90
48666;DHT22;34452;50.796;4.994;2023-08-01T00:29:54;17.20;99.90
48666;DHT22;34452;50.796;4.994;2023-08-01T00:32:20;17.20;99.90
48666;DHT22;34452;50.796;4.994;2023-08-01T00:34:47;17.10;99.90
48666;DHT22;34452;50.796;4.994;2023-08-01T00:37:15;17.10;99.90
48666;DHT22;34452;50.796;4.994;2023-08-01T00:39:41;17.10;99.90
48666;DHT22;34452;50.796;4.994;2023-08-01T00:42:06;17.10;99.90
48666;DHT22;34452;50.796;4.994;2023-08-01T00:44:32;17.10;99.90
48666;DHT22;34452;50.796;4.994;2023-08-01T00:46:58;17.10;99.90
48666;DHT22;34452;50.796;4.994;2023-08-01T00:49:24;17.10;99.90
48666;DHT22;34452;50.796;4.994;2023-08-01T00:51:49;17.20;99.90
48666;DHT22;34452;50.796;4.994;2023-08-01T00:54:16;17.20;99.90
48666;DHT22;34452;50.796;4.994;2023-08-01T00:56:42;17.20;99.90
48666;DHT22;34452;50.796;4.994;2023-08-01T00:59:08;17.20;99.90
48666;DHT22;34452;50.796;4.994;2023-08-01T01:01:34;17.20;99.90
48666;DHT22;34452;50.796;4.994;2023-08-01T01:03:59;17.20;99.90
48666;DHT22;34452;50.796;4.994;2023-08-01T01:06:32;17.20;99.90
48666;DHT22;34452;50.796;4.994;2023-08-01T01:08:58;17.20;99.90
48666;DHT22;34452;50.796;4.994;2023-08-01T01:11:24;17.10;99.90
48666;DHT22;34452;50.796;4.994;2023-08-01T01:13:50;17.20;99.90
48666;DHT22;34452;50.796;4.994;2023-08-01T01:16:19;17.10;99.90
48666;DHT22;34452;50.796;4.994;2023-08-01T01:18:45;17.10;99.90
48666;DHT22;34452;50.796;4.994;2023-08-01T01:21:11;17.10;99.90
48666;DHT22;34452;50.796;4.994;2023-08-01T01:23:37;17.00;99.90
48666;DHT22;34452;50.796;4.994;2023-08-01T01:26:04;17.00;99.90
48666;DHT22;34452;50.796;4.994;2023-08-01T01:28:32;16.90;99.90
48666;DHT22;34452;50.796;4.994;2023-08-01T01:30:58;16.90;99.90
48666;DHT22;34452;50.796;4.994;2023-08-01T01:33:26;16.90;99.90
48666;DHT22;34452;50.796;4.994;2023-08-01T01:35:52;16.80;99.90
48666;DHT22;34452;50.796;4.994;2023-08-01T01:38:17;16.80;99.90
48666;DHT22;34452;50.796;4.994;2023-08-01T01:40:43;16.80;99.90
48666;DHT22;34452;50.796;4.994;2023-08-01T01:43:09;16.80;99.90
48666;DHT22;34452;50.796;4.994;2023-08-01T01:45:35;16.80;99.90
48666;DHT22;34452;50.796;4.994;2023-08-01T01:48:00;16.80;99.90
48666;DHT22;34452;50.796;4.994;2023-08-01T01:50:26;16.80;99.90
48666;DHT22;34452;50.796;4.994;2023-08-01T01:52:52;16.80;99.90
48666;DHT22;34452;50.796;4.994;2023-08-01T01:55:18;16.80;99.90
48666;DHT22;34452;50.796;4.994;2023-08-01T01:57:43;16.80;99.90
48666;DHT22;34452;50.796;4.994;2023-08-01T02:00:09;16.80;99.90
48666;DHT22;34452;50.796;4.994;2023-08-01T02:02:36;16.70;99.90
48666;DHT22;34452;50.796;4.994;2023-08-01T02:05:02;16.70;99.90
48666;DHT22;34452;50.796;4.994;2023-08-01T02:07:29;16.80;99.90
48666;DHT22;34452;50.796;4.994;2023-08-01T02:09:55;16.70;99.90
48666;DHT22;34452;50.796;4.994;2023-08-01T02:12:21;16.70;99.90
48666;DHT22;34452;50.796;4.994;2023-08-01T02:14:46;16.70;99.90
48666;DHT22;34452;50.796;4.994;2023-08-01T02:17:12;16.70;99.90
48666;DHT22;34452;50.796;4.994;2023-08-01T02:19:38;16.70;99.90
48666;DHT22;34452;50.796;4.994;2023-08-01T02:22:04;16.60;99.90
48666;DHT22;34452;50.796;4.994;2023-08-01T02:24:30;16.50;99.90
48666;DHT22;34452;50.796;4.994;2023-08-01T02:26:55;16.50;99.90
48666;DHT22;34452;50.796;4.994;2023-08-01T02:29:21;16.50;99.90
48666;DHT22;34452;50.796;4.994;2023-08-01T02:31:47;16.40;99.90
48666;DHT22;34452;50.796;4.994;2023-08-01T02:34:12;16.50;99.90
48666;DHT22;34452;50.796;4.994;2023-08-01T02:36:38;16.40;99.90
48666;DHT22;34452;50.796;4.994;2023-08-01T02:39:06;16.40;99.90
48666;DHT22;34452;50.796;4.994;2023-08-01T02:41:32;16.50;99.90
48666;DHT22;34452;50.796;4.994;2023-08-01T02:43:57;16.50;99.90
48666;DHT22;34452;50.796;4.994;2023-08-01T02:46:23;16.50;99.90
48666;DHT22;34452;50.796;4.994;2023-08-01T02:48:49;16.50;99.90
48666;DHT22;34452;50.796;4.994;2023-08-01T02:51:14;16.50;99.90
48666;DHT22;34452;50.796;4.994;2023-08-01T02:53:40;16.50;99.90
48666;DHT22;34452;50.796;4.994;2023-08-01T02:56:07;16.50;99.90
48666;DHT22;34452;50.796;4.994;2023-08-01T02:58:35;16.50;99.90
48666;DHT22;34452;50.796;4.994;2023-08-01T03:01:05;16.50;99.90
48666;DHT22;34452;50.796;4.994;2023-08-01T03:03:32;16.50;99.90
48666;DHT22;34452;50.796;4.994;2023-08-01T03:05:59;16.50;99.90
48666;DHT22;34452;50.796;4.994;2023-08-01T03:08:25;16.50;99.90
48666;DHT22;34452;50.796;4.994;2023-08-01T03:10:51;16.50;99.90
48666;DHT22;34452;50.796;4.994;2023-08-01T03:13:16;16.50;99.90
48666;DHT22;34452;50.796;4.994;2023-08-01T03:15:42;16.50;99.90
48666;DHT22;34452;50.796;4.994;2023-08-01T03:18:08;16.50;99.90
48666;DHT22;34452;50.796;4.994;2023-08-01T03:20:33;16.50;99.90
48666;DHT22;34452;50.796;4.994;2023-08-01T03:22:59;16.50;99.90
48666;DHT22;34452;50.796;4.994;2023-08-01T03:25:25;16.40;99.90
48666;DHT22;34452;50.796;4.994;2023-08-01T03:27:51;16.40;99.90
48666;DHT22;34452;50.796;4.994;2023-08-01T03:30:16;16.40;99.90
48666;DHT22;34452;50.796;4.994;2023-08-01T03:32:42;16.40;99.90
48666;DHT22;34452;50.796;4.994;2023-08-01T03:35:08;16.40;99.90
48666;DHT22;34452;50.796;4.994;2023-08-01T03:37:34;16.40;99.90
48666;DHT22;34452;50.796;4.994;2023-08-01T03:39:59;16.40;99.90
48666;DHT22;34452;50.796;4.994;2023-08-01T03:42:25;16.40;99.90
48666;DHT22;34452;50.796;4.994;2023-08-01T03:44:51;16.40;99.90
48666;DHT22;34452;50.796;4.994;2023-08-01T03:47:16;16.40;99.90
48666;DHT22;34452;50.796;4.994;2023-08-01T03:49:42;16.40;99.90
48666;DHT22;34452;50.796;4.994;2023-08-01T03:52:08;16.40;99.90
48666;DHT22;34452;50.796;4.994;2023-08-01T03:54:34;16.40;99.90
48666;DHT22;34452;50.796;4.994;2023-08-01T03:57:00;16.40;99.90
48666;DHT22;34452;50.796;4.994;2023-08-01T03:59:26;16.30;99.90
48666;DHT22;34452;50.796;4.994;2023-08-01T04:01:51;16.30;99.90
48666;DHT22;34452;50.796;4.994;2023-08-01T04:04:17;16.30;99.90
48666;DHT22;34452;50.796;4.994;2023-08-01T04:06:43;16.30;99.90
48666;DHT22;34452;50.796;4.994;2023-08-01T04:09:09;16.20;99.90
48666;DHT22;34452;50.796;4.994;2023-08-01T04:11:34;16.20;99.90
48666;DHT22;34452;50.796;4.994;2023-08-01T04:14:00;16.20;99.90
48666;DHT22;34452;50.796;4.994;2023-08-01T04:16:26;16.20;99.90
48666;DHT22;34452;50.796;4.994;2023-08-01T04:18:51;16.20;99.90
48666;DHT22;34452;50.796;4.994;2023-08-01T04:21:18;16.20;99.90
48666;DHT22;34452;50.796;4.994;2023-08-01T04:23:44;16.20;99.90
48666;DHT22;34452;50.796;4.994;2023-08-01T04:26:09;16.20;99.90
48666;DHT22;34452;50.796;4.994;2023-08-01T04:28:35;16.20;99.90
48666;DHT22;34452;50.796;4.994;2023-08-01T04:31:01;16.20;99.90
48666;DHT22;34452;50.796;4.994;2023-08-01T04:33:27;16.20;99.90
48666;DHT22;34452;50.796;4.994;2023-08-01T04:35:52;16.20;99.90
48666;DHT22;34452;50.796;4.994;2023-08-01T04:38:18;16.20;99.90
48666;DHT22;34452;50.796;4.994;2023-08-01T04:40:44;16.30;99.90
48666;DHT22;34452;50.796;4.994;2023-08-01T04:43:11;16.30;99.90
48666;DHT22;34452;50.796;4.994;2023-08-01T04:45:36;16.30;99.90
48666;DHT22;34452;50.796;4.994;2023-08-01T04:48:02;16.30;99.90
48666;DHT22;34452;50.796;4.994;2023-08-01T04:50:28;16.30;99.90
48666;DHT22;34452;50.796;4.994;2023-08-01T04:52:54;16.30;99.90
48666;DHT22;34452;50.796;4.994;2023-08-01T04:55:20;16.30;99.90
48666;DHT22;34452;50.796;4.994;2023-08-01T04:57:45;16.30;99.90
48666;DHT22;34452;50.796;4.994;2023-08-01T05:00:11;16.30;99.90
48666;DHT22;34452;50.796;4.994;2023-08-01T05:02:37;16.30;99.90
48666;DHT22;34452;50.796;4.994;2023-08-01T05:05:03;16.30;99.90
48666;DHT22;34452;50.796;4.994;2023-08-01T05:07:30;16.30;99.90
48666;DHT22;34452;50.796;4.994;2023-08-01T05:09:55;16.20;99.90
48666;DHT22;34452;50.796;4.994;2023-08-01T05:12:21;16.20;99.90
48666;DHT22;34452;50.796;4.994;2023-08-01T05:14:47;16.20;99.90
48666;DHT22;34452;50.796;4.994;2023-08-01T05:17:13;16.20;99.90
48666;DHT22;34452;50.796;4.994;2023-08-01T05:19:39;16.20;99.90
48666;DHT22;34452;50.796;4.994;2023-08-01T05:22:04;16.20;99.90
48666;DHT22;34452;50.796;4.994;2023-08-01T05:24:30;16.30;99.90
48666;DHT22;34452;50.796;4.994;2023-08-01T05:26:56;16.40;99.90
48666;DHT22;34452;50.796;4.994;2023-08-01T05:29:22;16.40;99.90
48666;DHT22;34452;50.796;4.994;2023-08-01T05:31:47;16.50;99.90
48666;DHT22;34452;50.796;4.994;2023-08-01T05:34:13;16.50;99.90
48666;DHT22;34452;50.796;4.994;2023-08-01T05:36:39;16.50;99.90
48666;DHT22;34452;50.796;4.994;2023-08-01T05:39:04;16.40;99.90
48666;DHT22;34452;50.796;4.994;2023-08-01T05:41:30;16.40;99.90
48666;DHT22;34452;50.796;4.994;2023-08-01T05:43:57;16.50;99.90
48666;DHT22;34452;50.796;4.994;2023-08-01T05:46:23;16.50;99.90
48666;DHT22;34452;50.796;4.994;2023-08-01T05:48:49;16.50;99.90
48666;DHT22;34452;50.796;4.994;2023-08-01T05:51:15;16.50;99.90
48666;DHT22;34452;50.796;4.994;2023-08-01T05:53:40;16.60;99.90
48666;DHT22;34452;50.796;4.994;2023-08-01T05:56:06;16.60;99.90
48666;DHT22;34452;50.796;4.994;2023-08-01T05:58:32;16.60;99.90
48666;DHT22;34452;50.796;4.994;2023-08-01T06:00:58;16.70;99.90
48666;DHT22;34452;50.796;4.994;2023-08-01T06:03:23;16.70;99.90
48666;DHT22;34452;50.796;4.994;2023-08-01T06:05:49;16.70;99.90
48666;DHT22;34452;50.796;4.994;2023-08-01T06:08:15;16.70;99.90
48666;DHT22;34452;50.796;4.994;2023-08-01T06:10:42;16.80;99.90
48666;DHT22;34452;50.796;4.994;2023-08-01T06:13:08;16.80;99.90
48666;DHT22;34452;50.796;4.994;2023-08-01T06:15:34;16.80;99.90
48666;DHT22;34452;50.796;4.994;2023-08-01T06:17:59;16.80;99.90
48666;DHT22;34452;50.796;4.994;2023-08-01T06:20:25;16.80;99.90
48666;DHT22;34452;50.796;4.994;2023-08-01T06:22:51;16.80;99.90
48666;DHT22;34452;50.796;4.994;2023-08-01T06:25:17;16.90;99.90
48666;DHT22;34452;50.796;4.994;2023-08-01T06:27:42;16.90;99.90
48666;DHT22;34452;50.796;4.994;2023-08-01T06:30:08;16.80;99.90
48666;DHT22;34452;50.796;4.994;2023-08-01T06:32:34;16.80;99.90
48666;DHT22;34452;50.796;4.994;2023-08-01T06:35:00;16.80;99.90
48666;DHT22;34452;50.796;4.994;2023-08-01T06:37:26;16.80;99.90
48666;DHT22;34452;50.796;4.994;2023-08-01T06:39:51;16.90;99.90
48666;DHT22;34452;50.796;4.994;2023-08-01T06:42:17;17.00;99.90
48666;DHT22;34452;50.796;4.994;2023-08-01T06:44:43;17.10;99.90
48666;DHT22;34452;50.796;4.994;2023-08-01T06:47:09;17.10;99.90
48666;DHT22;34452;50.796;4.994;2023-08-01T06:49:35;17.10;99.90
48666;DHT22;34452;50.796;4.994;2023-08-01T06:52:00;17.10;99.90
48666;DHT22;34452;50.796;4.994;2023-08-01T06:54:26;17.10;99.90
48666;DHT22;34452;50.796;4.994;2023-08-01T06:56:52;17.10;99.90
48666;DHT22;34452;50.796;4.994;2023-08-01T06:59:17;17.10;99.90
48666;DHT22;34452;50.796;4.994;2023-08-01T07:01:43;17.20;99.90
48666;DHT22;34452;50.796;4.994;2023-08-01T07:04:10;17.20;99.90
48666;DHT22;34452;50.796;4.994;2023-08-01T07:06:36;17.20;99.90
48666;DHT22;34452;50.796;4.994;2023-08-01T07:09:01;17.40;99.90
48666;DHT22;34452;50.796;4.994;2023-08-01T07:11:27;17.50;99.90
48666;DHT22;34452;50.796;4.994;2023-08-01T07:13:53;17.50;99.90
48666;DHT22;34452;50.796;4.994;2023-08-01T07:16:19;17.50;99.90
48666;DHT22;34452;50.796;4.994;2023-08-01T07:18:44;17.40;99.90
48666;DHT22;34452;50.796;4.994;2023-08-01T07:21:10;17.40;99.90
48666;DHT22;34452;50.796;4.994;2023-08-01T07:23:36;17.30;99.90
48666;DHT22;34452;50.796;4.994;2023-08-01T07:26:02;17.30;99.90
48666;DHT22;34452;50.796;4.994;2023-08-01T07:28:28;17.40;99.90
48666;DHT22;34452;50.796;4.994;2023-08-01T07:33:34;17.50;99.90
48666;DHT22;34452;50.796;4.994;2023-08-01T07:36:00;17.60;99.90
48666;DHT22;34452;50.796;4.994;2023-08-01T07:38:26;17.60;99.90
48666;DHT22;34452;50.796;4.994;2023-08-01T07:40:53;17.60;99.90
48666;DHT22;34452;50.796;4.994;2023-08-01T07:43:19;17.70;99.90
48666;DHT22;34452;50.796;4.994;2023-08-01T07:45:45;17.60;99.90
48666;DHT22;34452;50.796;4.994;2023-08-01T07:48:11;17.70;99.90
48666;DHT22;34452;50.796;4.994;2023-08-01T07:50:37;17.70;99.90
48666;DHT22;34452;50.796;4.994;2023-08-01T07:53:03;17.70;99.90
48666;DHT22;34452;50.796;4.994;2023-08-01T07:55:29;17.80;99.90
48666;DHT22;34452;50.796;4.994;2023-08-01T07:57:54;17.90;99.90
48666;DHT22;34452;50.796;4.994;2023-08-01T08:00:20;17.80;99.90
48666;DHT22;34452;50.796;4.994;2023-08-01T08:02:46;17.70;99.90
48666;DHT22;34452;50.796;4.994;2023-08-01T08:05:12;17.70;99.90
48666;DHT22;34452;50.796;4.994;2023-08-01T08:07:38;17.70;99.90
48666;DHT22;34452;50.796;4.994;2023-08-01T08:10:05;17.70;99.90
48666;DHT22;34452;50.796;4.994;2023-08-01T08:12:31;17.70;99.90
48666;DHT22;34452;50.796;4.994;2023-08-01T08:14:56;17.90;99.90
48666;DHT22;34452;50.796;4.994;2023-08-01T08:17:22;18.10;99.90
48666;DHT22;34452;50.796;4.994;2023-08-01T08:19:48;18.20;99.90
48666;DHT22;34452;50.796;4.994;2023-08-01T08:22:14;18.20;99.90
48666;DHT22;34452;50.796;4.994;2023-08-01T08:24:39;18.20;99.90
48666;DHT22;34452;50.796;4.994;2023-08-01T08:27:05;18.10;99.90
48666;DHT22;34452;50.796;4.994;2023-08-01T08:29:32;18.10;99.90
48666;DHT22;34452;50.796;4.994;2023-08-01T08:31:58;18.00;99.90
48666;DHT22;34452;50.796;4.994;2023-08-01T08:34:24;18.00;99.90
48666;DHT22;34452;50.796;4.994;2023-08-01T08:36:50;18.10;99.90
48666;DHT22;34452;50.796;4.994;2023-08-01T08:39:17;18.20;99.90
48666;DHT22;34452;50.796;4.994;2023-08-01T08:42:02;18.20;99.90
48666;DHT22;34452;50.796;4.994;2023-08-01T08:44:28;18.20;99.90
48666;DHT22;34452;50.796;4.994;2023-08-01T08:46:59;18.20;99.90
48666;DHT22;34452;50.796;4.994;2023-08-01T08:49:26;18.20;99.90
48666;DHT22;34452;50.796;4.994;2023-08-01T08:51:54;18.20;99.90
48666;DHT22;34452;50.796;4.994;2023-08-01T08:54:20;18.20;99.90
48666;DHT22;34452;50.796;4.994;2023-08-01T08:56:46;18.40;99.90
48666;DHT22;34452;50.796;4.994;2023-08-01T08:59:13;18.50;99.90
48666;DHT22;34452;50.796;4.994;2023-08-01T09:01:39;18.70;99.90
48666;DHT22;34452;50.796;4.994;2023-08-01T09:04:05;18.80;99.90
48666;DHT22;34452;50.796;4.994;2023-08-01T09:06:34;18.80;99.90
48666;DHT22;34452;50.796;4.994;2023-08-01T09:11:52;19.10;99.90
48666;DHT22;34452;50.796;4.994;2023-08-01T09:14:19;19.40;99.90
48666;DHT22;34452;50.796;4.994;2023-08-01T09:16:46;19.50;99.90
48666;DHT22;34452;50.796;4.994;2023-08-01T09:19:17;19.50;99.90
48666;DHT22;34452;50.796;4.994;2023-08-01T09:21:43;19.40;99.90
48666;DHT22;34452;50.796;4.994;2023-08-01T09:24:10;19.30;99.90
48666;DHT22;34452;50.796;4.994;2023-08-01T09:26:37;19.10;99.90
48666;DHT22;34452;50.796;4.994;2023-08-01T09:29:02;18.90;99.90
48666;DHT22;34452;50.796;4.994;2023-08-01T09:31:30;18.90;99.90
48666;DHT22;34452;50.796;4.994;2023-08-01T09:33:56;19.10;99.90
48666;DHT22;34452;50.796;4.994;2023-08-01T09:36:22;19.30;99.90
48666;DHT22;34452;50.796;4.994;2023-08-01T09:38:49;19.30;99.90
48666;DHT22;34452;50.796;4.994;2023-08-01T09:41:45;19.50;99.90
48666;DHT22;34452;50.796;4.994;2023-08-01T09:44:30;19.70;99.90
48666;DHT22;34452;50.796;4.994;2023-08-01T09:46:57;19.80;99.90
48666;DHT22;34452;50.796;4.994;2023-08-01T09:49:23;20.00;99.90
48666;DHT22;34452;50.796;4.994;2023-08-01T09:51:50;20.20;99.90
48666;DHT22;34452;50.796;4.994;2023-08-01T09:54:17;20.40;99.90
48666;DHT22;34452;50.796;4.994;2023-08-01T09:57:14;20.60;99.90
48666;DHT22;34452;50.796;4.994;2023-08-01T09:59:40;20.70;99.90
48666;DHT22;34452;50.796;4.994;2023-08-01T10:02:14;20.70;99.90
48666;DHT22;34452;50.796;4.994;2023-08-01T10:04:41;20.60;99.90
48666;DHT22;34452;50.796;4.994;2023-08-01T10:07:11;20.30;99.90
48666;DHT22;34452;50.796;4.994;2023-08-01T10:09:38;20.30;99.90
48666;DHT22;34452;50.796;4.994;2023-08-01T10:12:05;20.10;99.90
48666;DHT22;34452;50.796;4.994;2023-08-01T10:14:32;19.90;99.90
48666;DHT22;34452;50.796;4.994;2023-08-01T10:16:58;19.90;99.90
48666;DHT22;34452;50.796;4.994;2023-08-01T10:19:25;19.70;99.90
48666;DHT22;34452;50.796;4.994;2023-08-01T10:21:52;19.60;99.90
48666;DHT22;34452;50.796;4.994;2023-08-01T10:24:19;19.50;99.90
48666;DHT22;34452;50.796;4.994;2023-08-01T10:26:45;19.40;99.90
48666;DHT22;34452;50.796;4.994;2023-08-01T10:29:12;19.40;99.90
48666;DHT22;34452;50.796;4.994;2023-08-01T10:31:38;19.40;99.90
48666;DHT22;34452;50.796;4.994;2023-08-01T10:34:19;19.70;99.90
48666;DHT22;34452;50.796;4.994;2023-08-01T10:37:05;19.70;99.90
48666;DHT22;34452;50.796;4.994;2023-08-01T10:39:31;19.90;99.90
48666;DHT22;34452;50.796;4.994;2023-08-01T10:41:59;20.00;99.90
48666;DHT22;34452;50.796;4.994;2023-08-01T10:44:26;19.80;99.90
48666;DHT22;34452;50.796;4.994;2023-08-01T10:46:55;19.70;99.90
48666;DHT22;34452;50.796;4.994;2023-08-01T10:49:37;19.80;99.90
48666;DHT22;34452;50.796;4.994;2023-08-01T10:52:24;19.90;99.90
48666;DHT22;34452;50.796;4.994;2023-08-01T10:55:08;20.00;99.90
48666;DHT22;34452;50.796;4.994;2023-08-01T10:57:38;20.20;99.90
48666;DHT22;34452;50.796;4.994;2023-08-01T11:00:05;20.40;99.90
48666;DHT22;34452;50.796;4.994;2023-08-01T11:02:50;20.60;99.90
48666;DHT22;34452;50.796;4.994;2023-08-01T11:05:18;20.60;99.90
48666;DHT22;34452;50.796;4.994;2023-08-01T11:07:53;20.70;99.90
48666;DHT22;34452;50.796;4.994;2023-08-01T11:10:20;20.80;99.90
48666;DHT22;34452;50.796;4.994;2023-08-01T11:12:46;20.90;99.90
48666;DHT22;34452;50.796;4.994;2023-08-01T11:15:13;20.80;99.90
48666;DHT22;34452;50.796;4.994;2023-08-01T11:17:41;20.80;99.90
48666;DHT22;34452;50.796;4.994;2023-08-01T11:20:08;20.80;99.90
48666;DHT22;34452;50.796;4.994;2023-08-01T11:22:35;20.80;99.90
48666;DHT22;34452;50.796;4.994;2023-08-01T11:25:01;20.90;99.90
48666;DHT22;34452;50.796;4.994;2023-08-01T11:27:27;21.10;99.90
48666;DHT22;34452;50.796;4.994;2023-08-01T11:29:54;21.20;99.90
48666;DHT22;34452;50.796;4.994;2023-08-01T11:32:20;21.20;99.90
48666;DHT22;34452;50.796;4.994;2023-08-01T11:34:47;21.20;99.90
48666;DHT22;34452;50.796;4.994;2023-08-01T11:37:18;21.10;99.90
48666;DHT22;34452;50.796;4.994;2023-08-01T11:39:45;21.00;99.90
48666;DHT22;34452;50.796;4.994;2023-08-01T11:42:42;20.90;99.90
48666;DHT22;34452;50.796;4.994;2023-08-01T11:45:10;20.90;99.90
48666;DHT22;34452;50.796;4.994;2023-08-01T11:47:36;20.80;99.90
48666;DHT22;34452;50.796;4.994;2023-08-01T11:50:02;20.60;99.90
48666;DHT22;34452;50.796;4.994;2023-08-01T11:52:28;20.40;99.90
48666;DHT22;34452;50.796;4.994;2023-08-01T11:54:55;20.50;99.90
48666;DHT22;34452;50.796;4.994;2023-08-01T11:57:22;20.50;99.90
48666;DHT22;34452;50.796;4.994;2023-08-01T12:02:34;20.60;99.90
48666;DHT22;34452;50.796;4.994;2023-08-01T12:05:00;20.70;99.90
48666;DHT22;34452;50.796;4.994;2023-08-01T12:07:26;20.70;99.90
48666;DHT22;34452;50.796;4.994;2023-08-01T12:09:56;20.70;99.90
48666;DHT22;34452;50.796;4.994;2023-08-01T12:12:22;20.80;99.90
48666;DHT22;34452;50.796;4.994;2023-08-01T12:14:48;20.90;99.90
48666;DHT22;34452;50.796;4.994;2023-08-01T12:17:13;21.00;99.90
48666;DHT22;34452;50.796;4.994;2023-08-01T12:19:39;21.00;99.90
48666;DHT22;34452;50.796;4.994;2023-08-01T12:22:05;21.10;99.90
48666;DHT22;34452;50.796;4.994;2023-08-01T12:24:31;21.20;99.90
48666;DHT22;34452;50.796;4.994;2023-08-01T12:26:58;21.10;99.90
48666;DHT22;34452;50.796;4.994;2023-08-01T12:29:24;20.90;99.90
48666;DHT22;34452;50.796;4.994;2023-08-01T12:31:49;20.70;99.90
48666;DHT22;34452;50.796;4.994;2023-08-01T12:34:15;20.60;99.90
48666;DHT22;34452;50.796;4.994;2023-08-01T12:36:41;20.50;99.90
48666;DHT22;34452;50.796;4.994;2023-08-01T12:39:06;20.50;99.90
48666;DHT22;34452;50.796;4.994;2023-08-01T12:41:36;20.50;99.90
48666;DHT22;34452;50.796;4.994;2023-08-01T12:44:03;20.60;99.90
48666;DHT22;34452;50.796;4.994;2023-08-01T12:46:29;20.90;99.90
48666;DHT22;34452;50.796;4.994;2023-08-01T12:48:55;21.50;99.90
48666;DHT22;34452;50.796;4.994;2023-08-01T12:51:20;22.10;99.90
48666;DHT22;34452;50.796;4.994;2023-08-01T12:53:46;22.40;99.90
48666;DHT22;34452;50.796;4.994;2023-08-01T12:56:12;22.40;99.90
48666;DHT22;34452;50.796;4.994;2023-08-01T12:58:37;22.20;99.90
48666;DHT22;34452;50.796;4.994;2023-08-01T13:01:03;22.10;99.90
48666;DHT22;34452;50.796;4.994;2023-08-01T13:03:29;21.80;99.90
48666;DHT22;34452;50.796;4.994;2023-08-01T13:05:55;21.60;99.90
48666;DHT22;34452;50.796;4.994;2023-08-01T13:08:22;21.60;99.90
48666;DHT22;34452;50.796;4.994;2023-08-01T13:10:48;21.40;99.90
48666;DHT22;34452;50.796;4.994;2023-08-01T13:13:16;21.50;99.90
48666;DHT22;34452;50.796;4.994;2023-08-01T13:15:42;21.40;99.90
48666;DHT22;34452;50.796;4.994;2023-08-01T13:18:09;21.40;99.90
48666;DHT22;34452;50.796;4.994;2023-08-01T13:20:35;21.30;99.90
48666;DHT22;34452;50.796;4.994;2023-08-01T13:23:02;21.20;99.90
48666;DHT22;34452;50.796;4.994;2023-08-01T13:25:28;21.00;99.90
48666;DHT22;34452;50.796;4.994;2023-08-01T13:27:54;20.80;99.90
48666;DHT22;34452;50.796;4.994;2023-08-01T13:30:20;20.70;99.90
48666;DHT22;34452;50.796;4.994;2023-08-01T13:32:46;20.50;99.90
48666;DHT22;34452;50.796;4.994;2023-08-01T13:35:12;20.30;99.90
48666;DHT22;34452;50.796;4.994;2023-08-01T13:37:38;20.10;99.90
48666;DHT22;34452;50.796;4.994;2023-08-01T13:40:04;20.10;99.90
48666;DHT22;34452;50.796;4.994;2023-08-01T13:42:31;20.10;99.90
48666;DHT22;34452;50.796;4.994;2023-08-01T13:44:57;20.20;99.90
48666;DHT22;34452;50.796;4.994;2023-08-01T13:47:22;20.30;99.90
48666;DHT22;34452;50.796;4.994;2023-08-01T13:49:48;20.40;99.90
48666;DHT22;34452;50.796;4.994;2023-08-01T13:52:14;20.50;99.90
48666;DHT22;34452;50.796;4.994;2023-08-01T13:54:40;20.60;99.90
48666;DHT22;34452;50.796;4.994;2023-08-01T13:57:06;20.60;99.90
48666;DHT22;34452;50.796;4.994;2023-08-01T13:59:31;20.50;99.90
48666;DHT22;34452;50.796;4.994;2023-08-01T14:01:57;20.50;99.90
48666;DHT22;34452;50.796;4.994;2023-08-01T14:04:23;20.40;99.90
48666;DHT22;34452;50.796;4.994;2023-08-01T14:06:49;20.30;99.90
48666;DHT22;34452;50.796;4.994;2023-08-01T14:09:14;20.20;99.90
48666;DHT22;34452;50.796;4.994;2023-08-01T14:11:40;20.30;99.90
48666;DHT22;34452;50.796;4.994;2023-08-01T14:14:06;20.40;99.90
48666;DHT22;34452;50.796;4.994;2023-08-01T14:16:32;20.60;99.90
48666;DHT22;34452;50.796;4.994;2023-08-01T14:18:59;20.90;99.90
48666;DHT22;34452;50.796;4.994;2023-08-01T14:21:24;21.10;99.90
48666;DHT22;34452;50.796;4.994;2023-08-01T14:23:50;21.70;99.90
48666;DHT22;34452;50.796;4.994;2023-08-01T14:26:16;22.10;99.90
48666;DHT22;34452;50.796;4.994;2023-08-01T14:28:41;22.40;99.90
48666;DHT22;34452;50.796;4.994;2023-08-01T14:31:07;22.40;99.90
48666;DHT22;34452;50.796;4.994;2023-08-01T14:33:33;22.20;99.90
48666;DHT22;34452;50.796;4.994;2023-08-01T14:35:59;22.10;99.90
48666;DHT22;34452;50.796;4.994;2023-08-01T14:38:25;22.30;99.90
48666;DHT22;34452;50.796;4.994;2023-08-01T14:40:52;22.70;99.90
48666;DHT22;34452;50.796;4.994;2023-08-01T14:43:18;22.70;99.90
48666;DHT22;34452;50.796;4.994;2023-08-01T14:45:44;22.30;99.90
48666;DHT22;34452;50.796;4.994;2023-08-01T14:48:09;22.10;99.90
48666;DHT22;34452;50.796;4.994;2023-08-01T14:50:35;22.00;99.90
48666;DHT22;34452;50.796;4.994;2023-08-01T14:53:02;22.00;99.90
48666;DHT22;34452;50.796;4.994;2023-08-01T14:55:29;21.90;99.90
48666;DHT22;34452;50.796;4.994;2023-08-01T14:57:55;21.70;99.90
48666;DHT22;34452;50.796;4.994;2023-08-01T15:00:20;21.50;99.90
48666;DHT22;34452;50.796;4.994;2023-08-01T15:02:46;21.30;99.90
48666;DHT22;34452;50.796;4.994;2023-08-01T15:05:14;21.10;99.90
48666;DHT22;34452;50.796;4.994;2023-08-01T15:07:40;20.90;99.90
48666;DHT22;34452;50.796;4.994;2023-08-01T15:10:06;20.70;99.90
48666;DHT22;34452;50.796;4.994;2023-08-01T15:12:32;20.50;99.90
48666;DHT22;34452;50.796;4.994;2023-08-01T15:14:57;20.40;99.90
48666;DHT22;34452;50.796;4.994;2023-08-01T15:17:24;20.30;99.90
48666;DHT22;34452;50.796;4.994;2023-08-01T15:19:50;20.30;99.90
48666;DHT22;34452;50.796;4.994;2023-08-01T15:22:16;20.20;99.90
48666;DHT22;34452;50.796;4.994;2023-08-01T15:24:43;20.10;99.90
48666;DHT22;34452;50.796;4.994;2023-08-01T15:27:09;20.10;99.90
48666;DHT22;34452;50.796;4.994;2023-08-01T15:29:34;20.00;99.90
48666;DHT22;34452;50.796;4.994;2023-08-01T15:32:00;19.90;99.90
48666;DHT22;34452;50.796;4.994;2023-08-01T15:34:26;19.80;99.90